Njurba, Russia
Current Conditions -  °F | °C
As of 9:00 PM on Friday 24 Oct 2014 (Local Time) from UEEE Reporting Station
Clear Clear  
Wind Chill: -21°   Ceiling: Unl
Heat Index: -9°   Visibility: 6mi
Dew Point: -13°   Wind: 4mph
Humidity: 84%   Direction: 310°NW
Pressure: 30.03"   Gusts: NA
Location:  63.28°N, 118.33°E
Report Text: UEEE 241200Z 31002MPS CAVOK M23/M25 Q1017 NOSIG RMK QFE75423490150
Loading
Personal Weather Stations






























Interactive Weather Map
Tropical Storm Tracking
New forecast layout! Learn more

10-Day Weather Forecast

Advertisements
Track Severe Weather on mobile